createdAt,value
2018-09-14T00:00:17.617Z,2.4
2018-09-14T00:02:19.375Z,2.1
2018-09-14T00:04:18.155Z,1.9
2018-09-14T00:06:19.218Z,2.1
2018-09-14T00:08:19.030Z,1.5
2018-09-14T00:10:18.298Z,2
2018-09-14T00:12:19.074Z,2.4
2018-09-14T00:14:17.849Z,2.4
2018-09-14T00:16:19.437Z,3
2018-09-14T00:18:19.262Z,2.7
2018-09-14T00:20:18.031Z,2.2
2018-09-14T00:22:17.773Z,1.4
2018-09-14T00:24:18.504Z,2
2018-09-14T00:26:18.526Z,2.8
2018-09-14T00:28:18.252Z,2.3
2018-09-14T00:30:19.022Z,2.3
2018-09-14T00:32:17.795Z,2.1
2018-09-14T00:34:17.568Z,1.7
2018-09-14T00:36:19.106Z,2
2018-09-14T00:38:18.838Z,1.9
2018-09-14T00:40:18.049Z,1.9
2018-09-14T00:42:17.826Z,2
2018-09-14T00:44:18.597Z,2.9
2018-09-14T00:46:18.091Z,1.7
2018-09-14T00:48:18.898Z,2.7
2018-09-14T00:50:18.663Z,2.2
2018-09-14T00:52:19.400Z,1.8
2018-09-14T00:54:19.168Z,2.2
2018-09-14T00:56:19.261Z,1.8
2018-09-14T00:58:18.052Z,2.5
2018-09-14T01:00:17.801Z,1.7
2018-09-14T01:02:17.546Z,2.1
2018-09-14T01:04:19.346Z,1.7
2018-09-14T01:06:19.484Z,2.4
2018-09-14T01:08:19.240Z,2.1
2018-09-14T01:10:19.482Z,2.5
2018-09-14T01:12:19.249Z,1.8
2018-09-14T01:14:19.028Z,2
2018-09-14T01:16:17.546Z,1.2
2018-09-14T01:18:19.374Z,2.7
2018-09-14T01:20:18.175Z,2
2018-09-14T01:22:19.157Z,1.5
2018-09-14T01:24:17.935Z,2
2018-09-14T01:26:18.651Z,1.3
2018-09-14T01:28:19.455Z,1.8
2018-09-14T01:30:19.216Z,2.1
2018-09-14T01:32:17.976Z,1.6
2018-09-14T01:34:18.762Z,2
2018-09-14T01:36:18.829Z,2.2
2018-09-14T01:38:17.601Z,1.6
2018-09-14T01:40:17.870Z,2.3
2018-09-14T01:42:17.614Z,2.1
2018-09-14T01:44:18.393Z,2.6
2018-09-14T01:46:18.880Z,2.8
2018-09-14T01:48:18.615Z,1.9
2018-09-14T01:50:18.362Z,2.3
2018-09-14T01:52:19.129Z,2.2
2018-09-14T01:54:18.885Z,2.6
2018-09-14T01:56:19.358Z,1.5
2018-09-14T01:58:19.107Z,1.7
2018-09-14T02:00:18.916Z,1.6
2018-09-14T02:02:18.650Z,1.7
2018-09-14T02:04:19.400Z,1.9
2018-09-14T02:06:19.013Z,2.2
2018-09-14T02:08:17.828Z,2.6
2018-09-14T02:10:19.031Z,2.6
2018-09-14T02:12:18.809Z,2
2018-09-14T02:14:18.546Z,1.7
2018-09-14T02:16:19.195Z,2.3
2018-09-14T02:18:19.009Z,2.2
2018-09-14T02:20:18.769Z,2
2018-09-14T02:22:17.546Z,2.2
2018-09-14T02:24:18.350Z,1.5
2018-09-14T02:26:18.564Z,1.8
2018-09-14T02:28:18.356Z,4.6
2018-09-14T02:30:18.119Z,4.6
2018-09-14T02:32:18.892Z,4.3
2018-09-14T02:34:17.686Z,4
2018-09-14T02:36:19.211Z,4.4
2018-09-14T02:38:19.009Z,5.1
2018-09-14T02:40:19.273Z,4.2
2018-09-14T02:42:19.036Z,4.1
2018-09-14T02:44:17.805Z,4.3
2018-09-14T02:46:18.350Z,5.1
2018-09-14T02:48:19.115Z,5.4
2018-09-14T02:50:18.962Z,4.6
2018-09-14T02:52:18.744Z,4.7
2018-09-14T02:54:18.521Z,3.5
2018-09-14T02:56:17.696Z,3.2
2018-09-14T02:58:19.475Z,4.2
2018-09-14T03:00:18.363Z,2.8
2018-09-14T03:02:18.740Z,3
2018-09-14T03:04:18.513Z,4.1
2018-09-14T03:06:18.540Z,2.5
2018-09-14T03:08:19.302Z,2.5
2018-09-14T03:10:18.580Z,2.8
2018-09-14T03:12:19.343Z,2.9
2018-09-14T03:14:19.110Z,2.7
2018-09-14T03:16:19.131Z,2.5
2018-09-14T03:18:18.969Z,2.8
2018-09-14T03:20:18.749Z,3.2
2018-09-14T03:22:17.526Z,2.6
2018-09-14T03:24:19.275Z,3.1
2018-09-14T03:26:18.778Z,2.5
2018-09-14T03:28:18.563Z,2.9
2018-09-14T03:30:19.338Z,2.4
2018-09-14T03:32:19.172Z,2.3
2018-09-14T03:34:19.064Z,2.3
2018-09-14T03:36:18.216Z,2.1
2018-09-14T03:38:19.008Z,2.4
2018-09-14T03:40:19.253Z,2.5
2018-09-14T03:42:19.033Z,1.9
2018-09-14T03:44:18.797Z,2.4
2018-09-14T03:46:18.806Z,2.6
2018-09-14T03:48:18.545Z,2.6
2018-09-14T03:50:19.409Z,3.2
2018-09-14T03:52:19.184Z,2
2018-09-14T03:54:18.945Z,1.5
2018-09-14T03:56:18.563Z,1.9
2018-09-14T03:58:19.336Z,2.4
2018-09-14T04:00:19.148Z,2
2018-09-14T04:02:17.895Z,1.9
2018-09-14T04:04:18.647Z,2.3
2018-09-14T04:06:19.193Z,1.5
2018-09-14T04:08:18.982Z,2.1
2018-09-14T04:10:18.227Z,1.5
2018-09-14T04:12:19.006Z,2.3
2018-09-14T04:14:17.801Z,2.1
2018-09-14T04:16:19.372Z,1.6
2018-09-14T04:18:19.237Z,1.6
2018-09-14T04:20:19.004Z,1.4
2018-09-14T04:22:18.770Z,1.6
2018-09-14T04:24:18.581Z,1.9
2018-09-14T04:26:19.117Z,1.6
2018-09-14T04:28:18.885Z,1.9
2018-09-14T04:30:18.628Z,1.7
2018-09-14T04:32:18.401Z,2.1
2018-09-14T04:34:19.168Z,1.5
2018-09-14T04:36:18.700Z,1.1
2018-09-14T04:38:18.537Z,1.4
2018-09-14T04:40:18.217Z,2.3
2018-09-14T04:42:18.970Z,1.9
2018-09-14T04:44:18.716Z,1.3
2018-09-14T04:46:18.269Z,1.2
2018-09-14T04:48:18.076Z,1.5
2018-09-14T04:50:19.091Z,1.1
2018-09-14T04:52:17.886Z,0.8
2018-09-14T04:54:18.623Z,1.4
2018-09-14T04:56:19.396Z,1
2018-09-14T04:58:18.191Z,1.1
2018-09-14T05:00:17.985Z,1.4
2018-09-14T05:02:18.754Z,1.2
2018-09-14T05:04:19.556Z,1.4
2018-09-14T05:06:17.633Z,1.1
2018-09-14T05:08:19.390Z,1.2
2018-09-14T05:10:17.650Z,1.1
2018-09-14T05:12:19.424Z,1.3
2018-09-14T05:14:19.262Z,1
2018-09-14T05:16:17.647Z,1
2018-09-14T05:18:18.469Z,1.3
2018-09-14T05:20:19.255Z,1.6
2018-09-14T05:22:18.024Z,1
2018-09-14T05:24:18.756Z,1.2
2018-09-14T05:26:18.566Z,1.2
2018-09-14T05:28:18.302Z,1.3
2018-09-14T05:30:19.076Z,1.7
2018-09-14T05:32:18.872Z,1.7
2018-09-14T05:34:18.635Z,1.2
2018-09-14T05:36:19.211Z,1.5
2018-09-14T05:38:19.054Z,1.2
2018-09-14T05:40:18.525Z,1.4
2018-09-14T05:42:19.275Z,1
2018-09-14T05:44:18.056Z,0.9
2018-09-14T05:46:17.663Z,1.1
2018-09-14T05:48:19.444Z,1.2
2018-09-14T05:50:18.276Z,1.2
2018-09-14T05:52:18.024Z,0.8
2018-09-14T05:54:18.812Z,0.9
2018-09-14T05:56:17.903Z,0.8
2018-09-14T05:58:17.654Z,1.1
2018-09-14T06:00:18.461Z,0.7
2018-09-14T06:02:19.283Z,1
2018-09-14T06:04:19.072Z,0.8
2018-09-14T06:06:19.203Z,1.5
2018-09-14T06:08:17.959Z,0.7
2018-09-14T06:10:19.333Z,0.7
2018-09-14T06:12:17.958Z,0.7
2018-09-14T06:14:17.695Z,1.3
2018-09-14T06:16:19.271Z,1.4
2018-09-14T06:18:18.117Z,0.8
2018-09-14T06:20:17.875Z,1.1
2018-09-14T06:22:17.652Z,1.4
2018-09-14T06:24:18.412Z,1
2018-09-14T06:26:18.259Z,1.3
2018-09-14T06:28:19.051Z,1
2018-09-14T06:30:18.824Z,1
2018-09-14T06:32:18.670Z,1.5
2018-09-14T06:34:18.422Z,1.4
2018-09-14T06:36:18.487Z,1.1
2018-09-14T06:38:19.323Z,1.5
2018-09-14T06:40:18.709Z,1.4
2018-09-14T06:42:18.450Z,1
2018-09-14T06:44:19.227Z,1.4
2018-09-14T06:46:19.412Z,1.2
2018-09-14T06:48:18.193Z,1.1
2018-09-14T06:50:18.988Z,1.1
2018-09-14T06:52:18.728Z,1.3
2018-09-14T06:54:19.503Z,1.4
2018-09-14T06:56:18.536Z,1.3
2018-09-14T06:58:18.327Z,1.7
2018-09-14T07:00:19.203Z,2
2018-09-14T07:02:19.216Z,1.1
2018-09-14T07:04:18.969Z,1.1
2018-09-14T07:06:18.530Z,1.2
2018-09-14T07:08:19.381Z,0.9
2018-09-14T07:10:17.676Z,0.8
2018-09-14T07:12:19.298Z,1.3
2018-09-14T07:14:19.060Z,1.8
2018-09-14T07:16:17.641Z,1.1
2018-09-14T07:18:18.487Z,1.2
2018-09-14T07:20:19.254Z,1.1
2018-09-14T07:22:19.170Z,1.5
2018-09-14T07:24:18.254Z,1.4
2018-09-14T07:26:19.451Z,1
2018-09-14T07:28:18.207Z,1.2
2018-09-14T07:30:19.081Z,1.3
2018-09-14T07:32:18.874Z,1
2018-09-14T07:34:18.652Z,1.5
2018-09-14T07:36:17.672Z,1.2
2018-09-14T07:38:19.443Z,1
2018-09-14T07:40:17.735Z,1.3
2018-09-14T07:42:19.592Z,1.2
2018-09-14T07:44:19.411Z,1
2018-09-14T07:46:19.432Z,1.2
2018-09-14T07:48:19.235Z,0.9
2018-09-14T07:50:19.072Z,1
2018-09-14T07:52:17.825Z,0.7
2018-09-14T07:54:18.601Z,1.2
2018-09-14T07:56:18.090Z,1
2018-09-14T07:58:18.869Z,1.2
2018-09-14T08:00:17.624Z,1
2018-09-14T08:02:18.398Z,1.3
2018-09-14T08:04:18.188Z,1.6
2018-09-14T08:06:17.686Z,1.2
2018-09-14T08:08:17.654Z,1.4
2018-09-14T08:10:17.874Z,1.2
2018-09-14T08:12:17.666Z,1.3
2018-09-14T08:14:18.418Z,1.1
2018-09-14T08:16:18.415Z,1.3
2018-09-14T08:18:18.284Z,1.1
2018-09-14T08:20:18.187Z,1.1
2018-09-14T08:22:18.178Z,0.8
2018-09-14T08:24:17.992Z,0.9
2018-09-14T08:26:18.543Z,1.1
2018-09-14T08:28:18.285Z,1.1
2018-09-14T08:30:18.154Z,1.5
2018-09-14T08:32:17.792Z,1.2
2018-09-14T08:34:17.632Z,1.6
2018-09-14T08:36:18.220Z,1.2
2018-09-14T08:38:17.996Z,1
2018-09-14T08:40:18.274Z,1
2018-09-14T08:42:18.079Z,0.9
2018-09-14T08:44:17.837Z,0.5
2018-09-14T08:46:17.985Z,0.9
2018-09-14T08:48:17.750Z,1
2018-09-14T08:50:18.505Z,1.1
2018-09-14T08:52:18.253Z,1.7
2018-09-14T08:54:18.064Z,1.6
2018-09-14T08:56:17.733Z,1.5
2018-09-14T08:58:18.526Z,1.1
2018-09-14T09:00:18.328Z,1.2
2018-09-14T09:02:18.090Z,1.8
2018-09-14T09:04:17.866Z,0.6
2018-09-14T09:06:17.952Z,1
2018-09-14T09:08:17.719Z,1.1
2018-09-14T09:10:17.970Z,1.4
2018-09-14T09:12:17.755Z,1.6
2018-09-14T09:14:17.545Z,1.1
2018-09-14T09:16:17.566Z,0.8
2018-09-14T09:18:18.443Z,1.1
2018-09-14T09:20:18.249Z,1.2
2018-09-14T09:22:17.801Z,1.2
2018-09-14T09:24:17.597Z,1.1
2018-09-14T09:26:17.644Z,1.2
2018-09-14T09:28:17.551Z,1.1
2018-09-14T09:30:18.365Z,1.1
2018-09-14T09:32:18.136Z,1.3
2018-09-14T09:34:17.918Z,1.6
2018-09-14T09:36:17.610Z,1.1
2018-09-14T09:38:18.359Z,1.8
2018-09-14T09:40:17.606Z,1.3
2018-09-14T09:42:18.378Z,0.8
2018-09-14T09:44:18.159Z,1.5
2018-09-14T09:46:17.694Z,1.1
2018-09-14T09:48:18.483Z,1.7
2018-09-14T09:50:18.336Z,1.1
2018-09-14T09:52:18.099Z,1.1
2018-09-14T09:54:17.895Z,0.9
2018-09-14T09:56:17.910Z,1
2018-09-14T09:58:17.692Z,1.1
2018-09-14T10:00:18.555Z,1.1
2018-09-14T10:02:18.344Z,1.7
2018-09-14T10:04:18.131Z,0.8
2018-09-14T10:06:18.381Z,0.5
2018-09-14T10:08:18.195Z,0.8
2018-09-14T10:10:18.602Z,1.4
2018-09-14T10:12:18.398Z,1.1
2018-09-14T10:14:18.149Z,0.8
2018-09-14T10:16:17.930Z,1.7
2018-09-14T10:18:17.807Z,1.3
2018-09-14T10:20:17.613Z,1
2018-09-14T10:22:18.435Z,0.8
2018-09-14T10:24:18.214Z,0.7
2018-09-14T10:26:17.968Z,1.2
2018-09-14T10:28:17.769Z,1.2
2018-09-14T10:30:17.611Z,0.8
2018-09-14T10:32:18.366Z,1.1
2018-09-14T10:34:18.147Z,1
2018-09-14T10:36:17.908Z,1.2
2018-09-14T10:38:17.684Z,1.2
2018-09-14T10:40:17.999Z,0.7
2018-09-14T10:42:17.812Z,0.9
2018-09-14T10:44:17.561Z,1.1
2018-09-14T10:46:18.276Z,0.6
2018-09-14T10:48:18.048Z,1.5
2018-09-14T10:50:17.852Z,1.3
2018-09-14T10:52:17.627Z,0.9
2018-09-14T10:54:18.392Z,0.9
2018-09-14T10:56:18.433Z,1.4
2018-09-14T10:58:18.193Z,1.2
2018-09-14T11:00:18.002Z,0.6
2018-09-14T11:02:18.293Z,1.1
2018-09-14T11:04:18.069Z,0.9
2018-09-14T11:06:18.201Z,1.1
2018-09-14T11:08:18.007Z,0.7
2018-09-14T11:10:18.260Z,0.7
2018-09-14T11:12:18.045Z,1
2018-09-14T11:14:17.839Z,1
2018-09-14T11:16:17.879Z,0.9
2018-09-14T11:18:17.748Z,1.2
2018-09-14T11:20:18.539Z,1
2018-09-14T11:22:18.283Z,0.7
2018-09-14T11:24:18.074Z,1.7
2018-09-14T11:26:17.557Z,1.6
2018-09-14T11:28:18.318Z,1.5
2018-09-14T11:30:18.151Z,0.8
2018-09-14T11:32:18.021Z,1.3
2018-09-14T11:34:17.827Z,0.7
2018-09-14T11:36:18.462Z,0.5
2018-09-14T11:38:18.312Z,1.1
2018-09-14T11:40:17.800Z,1
2018-09-14T11:42:18.334Z,0.7
2018-09-14T11:44:18.111Z,1.7
2018-09-14T11:46:18.185Z,0.8
2018-09-14T11:48:17.975Z,1.1
2018-09-14T11:50:17.812Z,0.7
2018-09-14T11:52:17.602Z,0.7
2018-09-14T11:54:18.504Z,0.7
2018-09-14T11:56:17.926Z,0.9
2018-09-14T11:58:17.790Z,0.7
2018-09-14T12:00:17.695Z,1.2
2018-09-14T12:02:18.469Z,0.8
2018-09-14T12:04:18.278Z,1.2
2018-09-14T12:06:17.981Z,0.8
2018-09-14T12:08:17.785Z,1
2018-09-14T12:10:18.107Z,0.4
2018-09-14T12:12:17.865Z,0.7
2018-09-14T12:14:17.644Z,1.2
2018-09-14T12:16:17.708Z,1.1
2018-09-14T12:18:17.610Z,0.8
2018-09-14T12:20:18.414Z,0.9
2018-09-14T12:22:18.246Z,0.8
2018-09-14T12:24:18.234Z,0.5
2018-09-14T12:26:17.748Z,1.2
2018-09-14T12:28:18.565Z,0.8
2018-09-14T12:30:18.499Z,0.6
2018-09-14T12:32:18.292Z,0.5
2018-09-14T12:34:18.081Z,0.6
2018-09-14T12:36:17.669Z,0.6
2018-09-14T12:38:18.519Z,1.2
2018-09-14T12:40:17.772Z,0.6
2018-09-14T12:42:17.548Z,0.9
2018-09-14T12:44:18.328Z,0.8
2018-09-14T12:46:17.854Z,0.6
2018-09-14T12:48:17.666Z,0.6
2018-09-14T12:50:18.516Z,0.6
2018-09-14T12:52:18.307Z,0.4
2018-09-14T12:54:18.082Z,0.3
2018-09-14T12:56:17.809Z,0.6
2018-09-14T12:58:17.742Z,0.4
2018-09-14T13:00:18.507Z,0.7
2018-09-14T13:02:18.313Z,0.6
2018-09-14T13:04:18.156Z,0.3
2018-09-14T13:06:18.251Z,0.4
2018-09-14T13:08:18.066Z,0.6
2018-09-14T13:10:18.355Z,0.9
2018-09-14T13:12:18.152Z,0.7
2018-09-14T13:14:17.968Z,0.7
2018-09-14T13:16:17.802Z,0.6
2018-09-14T13:18:17.662Z,0.6
2018-09-14T13:20:18.431Z,0.6
2018-09-14T13:22:18.190Z,0.4
2018-09-14T13:24:18.054Z,0.8
2018-09-14T13:26:18.370Z,0.7
2018-09-14T13:28:18.136Z,0.8
2018-09-14T13:30:18.057Z,0.6
2018-09-14T13:32:17.841Z,0.5
2018-09-14T13:34:17.627Z,0.7
2018-09-14T13:36:17.792Z,0.6
2018-09-14T13:38:17.574Z,0.5
2018-09-14T13:40:17.861Z,0.7
2018-09-14T13:42:17.666Z,1.4
2018-09-14T13:44:18.415Z,0.6
2018-09-14T13:46:17.930Z,0.6
2018-09-14T13:48:17.747Z,0.6
2018-09-14T13:50:18.534Z,0.9
2018-09-14T13:52:18.333Z,0.7
2018-09-14T13:54:18.148Z,0.7
2018-09-14T13:56:17.660Z,1.4
2018-09-14T13:58:18.479Z,0.8
2018-09-14T14:00:18.253Z,0.4
2018-09-14T14:02:18.050Z,0.6
2018-09-14T14:04:17.831Z,0.6
2018-09-14T14:06:17.911Z,0.6
2018-09-14T14:08:17.706Z,0.9
2018-09-14T14:10:18.060Z,0.6
2018-09-14T14:12:17.924Z,0.4
2018-09-14T14:14:17.735Z,1.3
2018-09-14T14:16:18.318Z,0.6
2018-09-14T14:18:18.184Z,0.8
2018-09-14T14:20:18.004Z,0.9
2018-09-14T14:22:17.857Z,0.3
2018-09-14T14:24:17.678Z,0.7
2018-09-14T14:26:18.207Z,0.9
2018-09-14T14:28:18.029Z,0.6
2018-09-14T14:30:17.836Z,0.4
2018-09-14T14:32:17.633Z,0.9
2018-09-14T14:34:18.450Z,0.4
2018-09-14T14:36:17.623Z,0.7
2018-09-14T14:38:18.428Z,0.7
2018-09-14T14:40:17.756Z,0.5
2018-09-14T14:42:18.537Z,0.5
2018-09-14T14:44:18.298Z,0.7
2018-09-14T14:46:17.901Z,0.5
2018-09-14T14:48:17.697Z,0.5
2018-09-14T14:50:18.501Z,0.3
2018-09-14T14:52:18.284Z,0.4
2018-09-14T14:54:18.079Z,0.4
2018-09-14T14:56:18.162Z,0.5
2018-09-14T14:58:17.938Z,0.8
2018-09-14T15:00:17.777Z,0.4
2018-09-14T15:02:17.638Z,0.7
2018-09-14T15:04:18.464Z,0.9
2018-09-14T15:06:18.074Z,0.2
2018-09-14T15:08:17.863Z,0.4
2018-09-14T15:10:18.145Z,0.5
2018-09-14T15:12:17.950Z,0.9
2018-09-14T15:14:17.735Z,0.2
2018-09-14T15:16:18.321Z,0.5
2018-09-14T15:18:18.234Z,0.4
2018-09-14T15:20:18.033Z,0.6
2018-09-14T15:22:17.828Z,0.7
2018-09-14T15:24:17.626Z,0.3
2018-09-14T15:26:18.217Z,0.3
2018-09-14T15:28:18.017Z,0.2
2018-09-14T15:30:17.817Z,0.7
2018-09-14T15:32:17.599Z,0.4
2018-09-14T15:34:18.419Z,0.1
2018-09-14T15:36:17.964Z,0.5
2018-09-14T15:38:17.730Z,0.3
2018-09-14T15:40:18.008Z,0.4
2018-09-14T15:42:17.823Z,0.7
2018-09-14T15:44:17.621Z,0.4
2018-09-14T15:46:17.743Z,0.5
2018-09-14T15:48:17.574Z,0.6
2018-09-14T15:50:18.470Z,0.4
2018-09-14T15:52:18.249Z,0.5
2018-09-14T15:54:18.049Z,1.1
2018-09-14T15:56:17.555Z,1
2018-09-14T15:58:18.353Z,0.3
2018-09-14T16:00:18.154Z,0.4
2018-09-14T16:02:17.920Z,0.3
2018-09-14T16:04:17.706Z,0.8
2018-09-14T16:06:17.802Z,0.9
2018-09-14T16:08:17.586Z,0.5
2018-09-14T16:10:17.822Z,0.2
2018-09-14T16:12:17.595Z,0.6
2018-09-14T16:14:18.373Z,0.5
2018-09-14T16:16:17.887Z,0.6
2018-09-14T16:18:17.715Z,0.7
2018-09-14T16:20:18.505Z,0.8
2018-09-14T16:22:18.318Z,0.3
2018-09-14T16:24:18.123Z,0.5
2018-09-14T16:26:18.189Z,0.2
2018-09-14T16:28:17.996Z,0.5
2018-09-14T16:30:17.761Z,0.8
2018-09-14T16:32:17.527Z,0.3
2018-09-14T16:34:18.299Z,0.5
2018-09-14T16:36:18.019Z,0.9
2018-09-14T16:38:17.795Z,0.4
2018-09-14T16:40:18.127Z,0.3
2018-09-14T16:42:17.902Z,0.6
2018-09-14T16:44:17.721Z,0.3
2018-09-14T16:46:18.339Z,0.4
2018-09-14T16:48:18.143Z,0.6
2018-09-14T16:50:17.966Z,0.3
2018-09-14T16:52:17.859Z,0.5
2018-09-14T16:54:17.659Z,0.4
2018-09-14T16:56:18.185Z,0.2
2018-09-14T16:58:17.949Z,0.4
2018-09-14T17:00:17.726Z,0.4
2018-09-14T17:02:17.863Z,0.6
2018-09-14T17:04:17.648Z,0.6
2018-09-14T17:06:17.746Z,0.5
2018-09-14T17:08:18.534Z,0.5
2018-09-14T17:10:17.790Z,0.4
2018-09-14T17:12:17.594Z,0.4
2018-09-14T17:14:18.403Z,0.5
2018-09-14T17:16:17.931Z,0.5
2018-09-14T17:18:17.773Z,0.3
2018-09-14T17:20:17.563Z,0.8
2018-09-14T17:22:18.381Z,0.3
2018-09-14T17:24:18.153Z,0.5
2018-09-14T17:26:18.409Z,0.5
2018-09-14T17:28:18.178Z,0.5
2018-09-14T17:30:18.034Z,0.4
2018-09-14T17:32:17.842Z,0.6
2018-09-14T17:34:17.662Z,1.1
2018-09-14T17:36:18.247Z,0.6
2018-09-14T17:38:18.124Z,0.4
2018-09-14T17:40:17.645Z,0.9
2018-09-14T17:42:18.394Z,0.5
2018-09-14T17:44:18.186Z,0.5
2018-09-14T17:46:17.785Z,0.6
2018-09-14T17:48:17.562Z,0.4
2018-09-14T17:50:18.333Z,0.5
2018-09-14T17:52:18.093Z,0.6
2018-09-14T17:54:17.887Z,1.3
2018-09-14T17:56:18.417Z,1.5
2018-09-14T17:58:18.184Z,0.6
2018-09-14T18:00:17.962Z,1.3
2018-09-14T18:02:17.787Z,0.8
2018-09-14T18:04:17.573Z,1.3
2018-09-14T18:06:17.625Z,0.9
2018-09-14T18:08:18.431Z,1.8
2018-09-14T18:10:17.643Z,1.5
2018-09-14T18:12:18.414Z,1.5
2018-09-14T18:14:18.207Z,1
2018-09-14T18:16:17.947Z,1.7
2018-09-14T18:18:17.849Z,1.6
2018-09-14T18:20:17.723Z,1.8
2018-09-14T18:22:18.611Z,1.6
2018-09-14T18:24:17.581Z,1.3
2018-09-14T18:26:18.124Z,1
2018-09-14T18:28:17.903Z,1.9
2018-09-14T18:30:17.702Z,0.8
2018-09-14T18:32:18.453Z,1.7
2018-09-14T18:34:18.225Z,1.8
2018-09-14T18:36:18.316Z,1.2
2018-09-14T18:38:18.099Z,1.5
2018-09-14T18:40:18.398Z,1.3
2018-09-14T18:42:18.364Z,1.1
2018-09-14T18:44:18.132Z,1.9
2018-09-14T18:46:17.642Z,1.7
2018-09-14T18:48:18.441Z,2.1
2018-09-14T18:50:18.226Z,2
2018-09-14T18:52:17.771Z,2.2
2018-09-14T18:54:17.630Z,2.2
2018-09-14T18:56:17.867Z,1.7
2018-09-14T18:58:17.651Z,2.3
2018-09-14T19:00:18.497Z,2.1
2018-09-14T19:02:18.237Z,1.9
2018-09-14T19:04:18.025Z,2
2018-09-14T19:06:18.123Z,1.8
2018-09-14T19:08:17.897Z,1.7
2018-09-14T19:10:18.175Z,2
2018-09-14T19:12:17.963Z,2
2018-09-14T19:14:17.768Z,1.7
2018-09-14T19:16:18.307Z,2.2
2018-09-14T19:18:18.138Z,1.9
2018-09-14T19:20:17.913Z,1.5
2018-09-14T19:22:17.666Z,2.8
2018-09-14T19:24:18.428Z,2
2018-09-14T19:26:18.056Z,1.9
2018-09-14T19:28:18.852Z,2
2018-09-14T19:30:18.658Z,2.2
2018-09-14T19:32:18.458Z,2.6
2018-09-14T19:34:19.211Z,2.7
2018-09-14T19:36:18.771Z,2
2018-09-14T19:38:17.548Z,2.1
2018-09-14T19:40:18.802Z,1.7
2018-09-14T19:42:17.610Z,2.6
2018-09-14T19:44:18.417Z,1.8
2018-09-14T19:46:17.987Z,1.8
2018-09-14T19:48:17.761Z,2.2
2018-09-14T19:50:17.795Z,2.3
2018-09-14T19:52:17.804Z,1.9
2018-09-14T19:54:17.600Z,2.5
2018-09-14T19:56:17.662Z,1.8
2018-09-14T19:58:18.419Z,1.9
2018-09-14T20:00:18.185Z,1.9
2018-09-14T20:02:18.974Z,1.8
2018-09-14T20:04:17.776Z,2
2018-09-14T20:06:18.283Z,1.6
2018-09-14T20:08:18.245Z,2
2018-09-14T20:10:18.444Z,1.8
2018-09-14T20:12:18.211Z,1.7
2018-09-14T20:14:17.983Z,1.6
2018-09-14T20:16:17.627Z,1.9
2018-09-14T20:18:18.498Z,2.2
2018-09-14T20:20:18.576Z,1.7
2018-09-14T20:22:18.335Z,2.3
2018-09-14T20:24:18.128Z,2
2018-09-14T20:26:18.216Z,1.9
2018-09-14T20:28:17.986Z,2
2018-09-14T20:30:17.795Z,1.7
2018-09-14T20:32:18.601Z,2.4
2018-09-14T20:34:18.356Z,1.4
2018-09-14T20:36:19.033Z,1.4
2018-09-14T20:38:18.803Z,1.3
2018-09-14T20:40:19.046Z,2
2018-09-14T20:42:17.852Z,1.3
2018-09-14T20:44:18.620Z,1.5
2018-09-14T20:46:17.690Z,1.2
2018-09-14T20:48:19.464Z,1.5
2018-09-14T20:50:19.257Z,1.1
2018-09-14T20:52:18.024Z,1.4
2018-09-14T20:54:18.826Z,2
2018-09-14T20:56:18.350Z,1.3
2018-09-14T20:58:19.157Z,1.2
2018-09-14T21:00:19.110Z,1.2
2018-09-14T21:02:17.887Z,1.2
2018-09-14T21:04:18.760Z,1
2018-09-14T21:06:18.953Z,1.1
2018-09-14T21:08:17.707Z,1.2
2018-09-14T21:10:19.066Z,1.3
2018-09-14T21:12:18.820Z,0.9
2018-09-14T21:14:17.608Z,1.1
2018-09-14T21:16:18.142Z,1
2018-09-14T21:18:18.008Z,1.2
2018-09-14T21:20:17.788Z,1.7
2018-09-14T21:22:18.559Z,1.6
2018-09-14T21:24:19.331Z,0.7
2018-09-14T21:26:17.872Z,1.1
2018-09-14T21:28:18.662Z,1
2018-09-14T21:30:18.421Z,0.9
2018-09-14T21:32:18.202Z,0.6
2018-09-14T21:34:18.970Z,1.1
2018-09-14T21:36:18.019Z,1
2018-09-14T21:38:17.821Z,0.7
2018-09-14T21:40:18.040Z,1.2
2018-09-14T21:42:17.869Z,1
2018-09-14T21:44:18.702Z,0.8
2018-09-14T21:46:17.738Z,0.8
2018-09-14T21:48:18.557Z,0.9
2018-09-14T21:50:18.481Z,1
2018-09-14T21:52:18.257Z,0.7
2018-09-14T21:54:18.015Z,0.9
2018-09-14T21:56:19.199Z,0.9
2018-09-14T21:58:18.966Z,0.7
2018-09-14T22:00:18.793Z,0.9
2018-09-14T22:02:17.581Z,0.6
2018-09-14T22:04:18.351Z,0.6
2018-09-14T22:06:18.702Z,1
2018-09-14T22:08:18.483Z,0.7
2018-09-14T22:10:17.732Z,0.7
2018-09-14T22:12:18.507Z,0.7
2018-09-14T22:14:18.250Z,0.6
2018-09-14T22:16:18.267Z,0.8
2018-09-14T22:18:19.108Z,1
2018-09-14T22:20:17.911Z,1.7
2018-09-14T22:22:17.706Z,0.8
2018-09-14T22:24:18.506Z,0.7
2018-09-14T22:26:17.571Z,1.1
2018-09-14T22:28:18.327Z,0.9
2018-09-14T22:30:18.116Z,1.1
2018-09-14T22:32:18.902Z,0.9
2018-09-14T22:34:17.649Z,0.5
2018-09-14T22:36:19.281Z,1.1
2018-09-14T22:38:18.086Z,1.4
2018-09-14T22:40:18.333Z,1
2018-09-14T22:42:18.208Z,1.7
2018-09-14T22:44:17.989Z,1.2
2018-09-14T22:46:18.481Z,1.2
2018-09-14T22:48:19.301Z,0.7
2018-09-14T22:50:18.056Z,1
2018-09-14T22:52:17.795Z,0.9
2018-09-14T22:54:17.591Z,1.3
2018-09-14T22:56:17.647Z,1
2018-09-14T22:58:18.407Z,1.1
2018-09-14T23:00:18.209Z,0.9
2018-09-14T23:02:17.994Z,0.8
2018-09-14T23:04:17.761Z,1
2018-09-14T23:06:17.839Z,0.9
2018-09-14T23:08:17.613Z,1.2
2018-09-14T23:10:18.929Z,1.6
2018-09-14T23:12:17.721Z,1.1
2018-09-14T23:14:18.480Z,0.7
2018-09-14T23:16:18.941Z,1.2
2018-09-14T23:18:17.829Z,1.2
2018-09-14T23:20:17.642Z,0.8
2018-09-14T23:22:18.399Z,0.7
2018-09-14T23:24:18.202Z,0.8
2018-09-14T23:26:18.256Z,0.8
2018-09-14T23:28:18.031Z,1.1
2018-09-14T23:30:17.840Z,0.8
2018-09-14T23:32:18.583Z,0.8
2018-09-14T23:34:19.348Z,0.9
2018-09-14T23:36:17.859Z,0.8
2018-09-14T23:38:17.648Z,0.7
2018-09-14T23:40:18.892Z,1
2018-09-14T23:42:17.691Z,1.3
2018-09-14T23:44:18.450Z,1.5
2018-09-14T23:46:17.742Z,1.3
2018-09-14T23:48:18.487Z,1.1
2018-09-14T23:50:19.273Z,1.5
2018-09-14T23:52:18.051Z,1.4
2018-09-14T23:54:17.817Z,1.2
2018-09-14T23:56:18.233Z,1.2
2018-09-14T23:58:18.021Z,1.6
